MET'MAP v2.0
soon released !

Expected late october,
this new version will be
more efficient, smarter,
and hosted on a brand new
server x3 powerfull...
...and still free !


Not compatible ?
Try the mobile version !

LOG IN : | Subscribe | Disclaimer | Who is Orbifly ? |
ICAO code :
Legend : VFR Marginal VFR IFR Intensive IFR Very Intensive IFR
Visi :
Ceiling :
>= 8 km
>= 3000ft
5 to 8 km
1000 to 3000 ft
1500m to 5 km
500 to 1000 ft
800 to 1500m
200 to 500 ft
< 800m
< 200 ft

METAR - LEJR Jerez Airport - 05 Mar 2021 01:32 UTC - Data Source NOAA   


- Airport Elevation : 93 ft
- IATA code : XRY
- No reported NOTAMs.


LEJR - Jerez Airport

Latest METAR recorded : 2015/08/11 08:00 LEJR 110800Z 18005KT 150V220 9000 FEW018 23/21 Q1014
TAF TAF LEJR
Valid from the 05 at 00:00 until the 06 at 00:00 UTC


042300Z 0500/0524 15013KT 9999 SCT025 BKN040 TX16/0514Z TN13/0506Z
PROB30
TEMPO 0500/0503 07007KT
PROB30
TEMPO 0503/0507 4000 -RA
TEMPO 0507/0518 3000 RA BKN014
PROB30
TEMPO 0507/0515 TS SCT020CB BKN030
BECMG 0515/0518 VRB03KT

Source NOAA


MET'MAP, your aeronautical weather chart ! - Copyright ORBIFLY December 2007

Programming & Development : Alexandra Zaïnal
Co-Developer : Marc-Olivier Méhu
Technical & hardware support : Manuel Goepfert
Concept & Financing : Baudouin d'Aumeries